Flight Track Log - Related Links

Times and Time Zones

All times are in EDT time to prevent confusion due to time zone crossing. See the TYR637 flight status page for this flight to view local times or setup timezone preferences in your user account.

Time Position Orientation Groundspeed Altitude Reporting Facility
EDT Latitude Longitude Course Direction KTS MPH feet Rate Location/Type
Wed 04:52:00 PM 48.3784 16.7953 29° Northeast  Level Estimated
Wed 04:53:00 PM 48.4677 16.8711 29° Northeast  Level Estimated
Wed 04:54:00 PM 48.5570 16.9471 29° Northeast  Level Estimated
Wed 04:55:00 PM 48.6462 17.0233 29° Northeast  Level Estimated
Wed 04:56:00 PM 48.7353 17.0999 30° Northeast  Level Estimated
Wed 04:57:00 PM 48.8244 17.1767 30° Northeast  Level Estimated
Wed 04:58:00 PM 48.9134 17.2538 30° Northeast  Level Estimated
Wed 04:59:00 PM 49.0024 17.3311 30° Northeast  Level Estimated
Wed 05:00:00 PM 49.0913 17.4088 30° Northeast  Level Estimated
Wed 05:01:00 PM 49.1802 17.4867 30° Northeast  Level Estimated
Wed 05:02:00 PM 49.2691 17.5648 30° Northeast  Level Estimated
Wed 05:03:00 PM 49.3578 17.6433 30° Northeast  Level Estimated
Wed 05:04:00 PM 49.4465 17.7221 30° Northeast  Level Estimated
Wed 05:05:00 PM 49.5352 17.8011 30° Northeast  Level Estimated
Wed 05:06:00 PM 49.6238 17.8804 30° Northeast  Level Estimated
Wed 05:07:00 PM 49.7124 17.9601 30° Northeast  Level Estimated
Wed 05:08:00 PM 49.8009 18.0400 30° Northeast  Level Estimated
Wed 05:09:00 PM 49.8893 18.1202 30° Northeast  Level Estimated
Wed 05:10:00 PM 49.9777 18.2007 30° Northeast  Level Estimated
Wed 05:11:00 PM 50.0661 18.2815 30° Northeast  Level Estimated
Wed 05:12:00 PM 50.1544 18.3626 30° Northeast  Level Estimated
Wed 05:13:00 PM 50.2426 18.4440 31° Northeast  Level Estimated
Wed 05:14:00 PM 50.3307 18.5256 31° Northeast  Level Estimated
Wed 05:15:00 PM 50.4189 18.6076 31° Northeast  Level Estimated
Wed 05:16:00 PM 50.5069 18.6899 31° Northeast  Level Estimated
Wed 05:17:00 PM 50.5949 18.7726 31° Northeast  Level Estimated
Wed 05:18:00 PM 50.6828 18.8555 31° Northeast  Level Estimated
Wed 05:19:00 PM 50.7707 18.9387 31° Northeast  Level Estimated
Wed 05:20:00 PM 50.8585 19.0222 31° Northeast  Level Estimated
Wed 05:21:00 PM 50.9463 19.1061 31° Northeast  Level Estimated
Wed 05:22:00 PM 51.0340 19.1903 31° Northeast  Level Estimated
Wed 05:23:00 PM 51.1216 19.2748 31° Northeast  Level Estimated
Wed 05:24:00 PM 51.2092 19.3596 31° Northeast  Level Estimated
Wed 05:25:00 PM 51.2967 19.4447 31° Northeast  Level Estimated
Wed 05:26:00 PM 51.3842 19.5302 31° Northeast  Level Estimated
Wed 05:27:00 PM 51.4716 19.6160 31° Northeast  Level Estimated
Wed 05:28:00 PM 51.5589 19.7021 32° Northeast  Level Estimated
Wed 05:29:00 PM 51.6462 19.7885 32° Northeast  Level Estimated
Wed 05:30:00 PM 51.7334 19.8753 32° Northeast  Level Estimated
Wed 05:31:00 PM 51.8205 19.9625 32° Northeast  Level Estimated
Wed 05:32:00 PM 51.9076 20.0499 32° Northeast  Level Estimated
Wed 05:33:00 PM 51.9946 20.1377 32° Northeast  Level Estimated
Wed 05:34:00 PM 52.0815 20.2259 32° Northeast  Level Estimated
Wed 05:35:00 PM 52.1684 20.3143 32° Northeast  Level Estimated
Wed 05:36:00 PM 52.2552 20.4032 32° Northeast  Level Estimated
Wed 05:37:00 PM 52.3419 20.4923 32° Northeast  Level Estimated
Wed 05:38:00 PM 52.4286 20.5819 32° Northeast  Level Estimated
Wed 05:39:00 PM 52.5152 20.6718 32° Northeast  Level Estimated
Wed 05:40:00 PM 52.6018 20.7620 32° Northeast  Level Estimated
Wed 05:41:00 PM 52.6882 20.8526 32° Northeast  Level Estimated
Wed 05:42:00 PM 52.7746 20.9435 32° Northeast  Level Estimated
Wed 05:43:00 PM 52.8610 21.0348 33° Northeast  Level Estimated
Wed 05:44:00 PM 52.9472 21.1265 33° Northeast  Level Estimated
Wed 05:45:00 PM 53.0334 21.2186 33° Northeast  Level Estimated
Wed 05:46:00 PM 53.1195 21.3110 33° Northeast  Level Estimated
Wed 05:47:00 PM 53.2056 21.4038 33° Northeast  Level Estimated
Wed 05:48:00 PM 53.2915 21.4969 33° Northeast  Level Estimated
Wed 05:49:00 PM 53.3774 21.5905 33° Northeast  Level Estimated
Wed 05:50:00 PM 53.4633 21.6844 33° Northeast  Level Estimated
Wed 05:51:00 PM 53.5490 21.7787 33° Northeast  Level Estimated
Wed 05:52:00 PM 53.6347 21.8733 33° Northeast  Level Estimated
Wed 05:53:00 PM 53.7203 21.9684 33° Northeast  Level Estimated
Wed 05:54:00 PM 53.8058 22.0638 33° Northeast  Level Estimated
Wed 05:55:00 PM 53.8913 22.1597 33° Northeast  Level Estimated
Wed 05:56:00 PM 53.9767 22.2559 34° Northeast  Level Estimated
Wed 05:57:00 PM 54.0620 22.3525 34° Northeast  Level Estimated
Wed 05:58:00 PM 54.1472 22.4495 34° Northeast  Level Estimated
Wed 05:59:00 PM 54.2323 22.5470 34° Northeast  Level Estimated
Wed 06:00:00 PM 54.3174 22.6448 34° Northeast  Level Estimated
Wed 06:01:00 PM 54.4024 22.7430 34° Northeast  Level Estimated
Wed 06:02:00 PM 54.4873 22.8417 34° Northeast  Level Estimated
Wed 06:03:00 PM 54.5721 22.9407 34° Northeast  Level Estimated
Wed 06:04:00 PM 54.6568 23.0402 34° Northeast  Level Estimated
Wed 06:05:00 PM 54.7415 23.1400 34° Northeast  Level Estimated
Wed 06:06:00 PM 54.8261 23.2403 34° Northeast  Level Estimated
Wed 06:07:00 PM 54.9105 23.3410 34° Northeast  Level Estimated
Wed 06:08:00 PM 54.9950 23.4422 34° Northeast  Level Estimated
Wed 06:09:00 PM 55.0793 23.5437 35° Northeast  Level Estimated
Wed 06:10:00 PM 55.1635 23.6457 35° Northeast  Level Estimated
Wed 06:11:00 PM 55.2477 23.7481 35° Northeast  Level Estimated
Wed 06:12:00 PM 55.3318 23.8510 35° Northeast  Level Estimated
Wed 06:13:00 PM 55.4157 23.9543 35° Northeast  Level Estimated
Wed 06:14:00 PM 55.4996 24.0580 35° Northeast  Level Estimated
Wed 06:15:00 PM 55.5835 24.1622 35° Northeast  Level Estimated
Wed 06:16:00 PM 55.6672 24.2668 35° Northeast  Level Estimated
Wed 06:17:00 PM 55.7508 24.3719 35° Northeast  Level Estimated
Wed 06:18:00 PM 55.8343 24.4774 35° Northeast  Level Estimated
Wed 06:19:00 PM 55.9178 24.5834 35° Northeast  Level Estimated
Wed 06:20:00 PM 56.0011 24.6898 36° Northeast  Level Estimated
Wed 06:21:00 PM 56.0844 24.7967 36° Northeast  Level Estimated
Wed 06:22:00 PM 56.1676 24.9041 36° Northeast  Level Estimated
Wed 06:23:00 PM 56.2507 25.0119 36° Northeast  Level Estimated
Wed 06:24:00 PM 56.3337 25.1202 36° Northeast  Level Estimated
Wed 06:25:00 PM 56.4165 25.2290 36° Northeast  Level Estimated
Wed 06:26:00 PM 56.4993 25.3382 36° Northeast  Level Estimated
Wed 06:27:00 PM 56.5820 25.4479 36° Northeast  Level Estimated
Wed 06:28:00 PM 56.6646 25.5581 36° Northeast  Level Estimated
Wed 06:29:00 PM 56.7471 25.6688 36° Northeast  Level Estimated
Wed 06:30:00 PM 56.8296 25.7800 36° Northeast  Level Estimated
Wed 06:31:00 PM 56.9119 25.8916 37° Northeast  Level Estimated
Wed 06:32:00 PM 56.9941 26.0038 37° Northeast  Level Estimated
Wed 06:33:00 PM 57.0762 26.1164 37° Northeast  Level Estimated
Wed 06:34:00 PM 57.1582 26.2296 37° Northeast  Level Estimated
Wed 06:35:00 PM 57.2401 26.3432 37° Northeast  Level Estimated
Wed 06:36:00 PM 57.3219 26.4574 37° Northeast  Level Estimated
Wed 06:37:00 PM 57.4036 26.5720 37° Northeast  Level Estimated
Wed 06:38:00 PM 57.4852 26.6872 37° Northeast  Level Estimated
Wed 06:39:00 PM 57.5666 26.8029 37° Northeast  Level Estimated
Wed 06:40:00 PM 57.6480 26.9191 37° Northeast  Level Estimated
Wed 06:41:00 PM 57.7293 27.0359 37° Northeast  Level Estimated
Wed 06:42:00 PM 57.8105 27.1531 38° Northeast  Level Estimated
Wed 06:43:00 PM 57.8915 27.2709 38° Northeast  Level Estimated
Wed 06:44:00 PM 57.9725 27.3892 38° Northeast  Level Estimated
Wed 06:45:00 PM 58.0533 27.5081 38° Northeast  Level Estimated
Wed 06:46:00 PM 58.1340 27.6275 38° Northeast  Level Estimated
Wed 06:47:00 PM 58.2146 27.7474 38° Northeast  Level Estimated
Wed 06:48:00 PM 58.2951 27.8679 38° Northeast  Level Estimated
Wed 06:49:00 PM 58.3755 27.9889 38° Northeast  Level Estimated
Wed 06:50:00 PM 58.4558 28.1105 38° Northeast  Level Estimated
Wed 06:51:00 PM 58.5359 28.2326 38° Northeast  Level Estimated
Wed 06:52:00 PM 58.6160 28.3553 39° Northeast  Level Estimated
Wed 06:53:00 PM 58.6959 28.4786 39° Northeast  Level Estimated
Wed 06:54:00 PM 58.7757 28.6024 39° Northeast  Level Estimated
Wed 06:55:00 PM 58.8554 28.7268 39° Northeast  Level Estimated
Wed 06:56:00 PM 58.9349 28.8518 39° Northeast  Level Estimated
Wed 06:57:00 PM 59.0144 28.9773 39° Northeast  Level Estimated
Wed 06:58:00 PM 59.0937 29.1034 39° Northeast  Level Estimated
Wed 06:59:00 PM 59.1729 29.2301 39° Northeast  Level Estimated
Wed 07:00:00 PM 59.2520 29.3574 39° Northeast  Level Estimated
Wed 07:01:00 PM 59.3309 29.4853 40° Northeast  Level Estimated
Wed 07:02:00 PM 59.4097 29.6138 40° Northeast  Level Estimated
Wed 07:03:00 PM 59.4884 29.7429 40° Northeast  Level Estimated
Wed 07:04:00 PM 59.5670 29.8726 40° Northeast  Level Estimated
Wed 07:05:00 PM 59.6454 30.0028 40° Northeast  Level Estimated
Wed 07:06:00 PM 59.7238 30.1338 40° Northeast  Level Estimated
Wed 07:07:00 PM 59.8003 30.2625 40° Northeast  Level Estimated
Wed 07:08:00 PM 59.8003 30.2625 37° Northeast  Level Estimated
Wed 07:09:00 PM 59.8003 30.2625 37° Northeast  Level Estimated
Wed 07:10:00 PM 59.8003 30.2625 37° Northeast  Level Estimated
Wed 07:11:00 PM 59.8003 30.2625 37° Northeast  Level Estimated
Wed 07:12:00 PM 59.8003 30.2625 37° Northeast  Level Estimated
Wed 07:13:00 PM 59.8003 30.2625 37° Northeast  Level Estimated
Wed 07:14:00 PM 59.8003 30.2625 37° Northeast  Level Estimated
Wed 07:15:00 PM 59.8003 30.2625 37° Northeast  Level Estimated
Wed 07:16:00 PM 59.8003 30.2625 37° Northeast  Level Estimated
Wed 07:17:00 PM 59.8003 30.2625 37° Northeast  Level Estimated
Wed 07:18:00 PM 59.8003 30.2625 37° Northeast  Level Estimated
Wed 07:19:00 PM 59.8003 30.2625 37° Northeast  Level Estimated
Wed 07:20:00 PM 59.8003 30.2625 37° Northeast  Level Estimated
Wed 07:21:00 PM 59.8003 30.2625 37° Northeast  Level Estimated
Wed 07:22:00 PM 59.8003 30.2625 37° Northeast  Level Estimated
Wed 07:23:00 PM 59.8003 30.2625 37° Northeast  Level Estimated

Login

Don't have an account? Register now (free) for customized features, flight alerts, and more!